首页
METAR-TAF:

METAR-TAF

机场 :

杰克逊维尔, 佛罗里达州, 美国

纬度: 30-20-10N, 经度: 081-30-53W, 海拔: 12米

当前天气观测

该预报发布于33分钟前的16:14 UTC
风速6节,风向东转东南
温度 31°C
湿度 66%
气压 1020 hPa
能見度: 16.1公里
散云层高于2900英尺
多云层高于4300英尺
多云层高于5000英尺

METAR: KCRG 201614Z 12006KT 10SM SCT029 BKN043 BKN050 31/24 A3013 RMK AO2 T03060239

时间: 12:47 (16:47 UTC)

预报

该预报发布于5小时和27分钟前的11:20 UTC
预报有效从20日的 12点(UTC)到 21日的 12点(UTC)
风速4节,风向多变
能見度: 10公里
少量云层高于8000英尺
多云层高于25000英尺
从 20日的 1500点(UTC)
风速5节,风向南转南东
能見度: 10公里
散云层高于3000英尺
散云层高于25000英尺
从 20日的 1800点(UTC)
风速10节,风向
能見度: 10公里
少量云层高于5000英尺, 积雨云.
散云层高于10000英尺
散云层高于25000英尺
附近有雷暴
从 21日的 0200点(UTC)
风速3节,风向多变
能見度: 10公里
多云层高于25000英尺

TAF: KCRG 201120Z 2012/2112 VRB04KT P6SM FEW080 BKN250 FM201500 15005KT P6SM SCT030 SCT250 FM201800 10010KT P6SM VCTS FEW050CB SCT100 SCT250 FM210200 VRB03KT P6SM BKN250

超过4000个机场的气象观测和天气预报(METAR&TAF报告)。

可查询的气象台以黄色和红色小点在地图上表示。

将鼠标移到小点上方,可查看气象台名称。

然后点击查看天气观测和预报。

如需切换地图:点击带黑十字的绿色按钮放大地图;点击带横线的绿色按钮缩小地图;或者点击绿色箭头查看邻近地区的地图。


METAR-TAF: